Saint Leon, Idaho
Current Conditions -  °F | °C
As of 8:53 AM on Monday 26 Jan 2015 (Local Time) from KIDA Reporting Station
Clear Clear  
Wind Chill: 16°   Ceiling: Unl
Heat Index: 22°   Visibility: 10mi
Dew Point: 19°   Wind: 5mph
Humidity: 89%   Direction: 10°N
Pressure: 30.42"   Gusts: NA
Location:  43.498°N, 111.73°W
Report Text: KIDA 261553Z 01004KT 10SM CLR M06/M07 A3042 RMK AO2 SLP339 T10561072
Loading
Personal Weather Stations






























Interactive Weather Map New forecast layout! Learn more

10-Day Weather Forecast

Advertisements
Track Severe Weather on mobile